createdAt,value
2018-11-03T00:01:19.332Z,95.02
2018-11-03T00:03:47.596Z,95.49
2018-11-03T00:06:15.760Z,94.68
2018-11-03T00:08:43.986Z,93.96
2018-11-03T00:11:12.247Z,93.48
2018-11-03T00:13:40.376Z,93.59
2018-11-03T00:16:08.565Z,93.65
2018-11-03T00:18:36.707Z,93.74
2018-11-03T00:21:05.104Z,93.52
2018-11-03T00:23:33.398Z,93.75
2018-11-03T00:26:01.539Z,93.32
2018-11-03T00:28:29.789Z,92.33
2018-11-03T00:30:57.936Z,92.17
2018-11-03T00:33:26.116Z,92.42
2018-11-03T00:35:54.427Z,92.83
2018-11-03T00:38:22.712Z,93.24
2018-11-03T00:40:50.880Z,92.55
2018-11-03T00:43:19.051Z,93.68
2018-11-03T00:45:47.243Z,93.79
2018-11-03T00:48:15.413Z,93.57
2018-11-03T00:50:43.633Z,94.28
2018-11-03T00:53:12.136Z,94.92
2018-11-03T00:55:40.287Z,95.51
2018-11-03T00:58:08.500Z,95.54
2018-11-03T01:00:36.691Z,95.75
2018-11-03T01:03:04.984Z,96.02
2018-11-03T01:05:33.175Z,96.17
2018-11-03T01:08:01.359Z,96.96
2018-11-03T01:10:29.483Z,96.65
2018-11-03T01:12:57.654Z,97.19
2018-11-03T01:15:25.898Z,97.35
2018-11-03T01:17:54.016Z,96.94
2018-11-03T01:20:22.500Z,97.21
2018-11-03T01:22:50.609Z,96.86
2018-11-03T01:25:19.201Z,97.34
2018-11-03T01:27:48.412Z,97.84
2018-11-03T01:30:17.227Z,97.98
2018-11-03T01:32:45.530Z,98.73
2018-11-03T01:35:13.694Z,99.39
2018-11-03T01:37:41.815Z,99.80
2018-11-03T01:40:11.705Z,99.87
2018-11-03T01:42:40.187Z,98.99
2018-11-03T01:45:08.539Z,99.29
2018-11-03T01:47:37.083Z,99.69
2018-11-03T01:50:07.425Z,99.54
2018-11-03T01:52:36.525Z,98.99
2018-11-03T01:55:04.919Z,100.00
2018-11-03T01:57:33.130Z,100.00
2018-11-03T02:00:01.443Z,100.00
2018-11-03T02:02:29.785Z,100.00
2018-11-03T02:04:58.151Z,100.00
2018-11-03T02:07:26.331Z,100.00
2018-11-03T02:09:54.759Z,100.00
2018-11-03T02:12:23.005Z,99.17
2018-11-03T02:14:51.442Z,99.18
2018-11-03T02:17:20.581Z,99.62
2018-11-03T02:19:48.725Z,98.79
2018-11-03T02:22:17.000Z,98.73
2018-11-03T02:24:45.132Z,99.13
2018-11-03T02:27:13.285Z,99.12
2018-11-03T02:29:41.435Z,99.44
2018-11-03T02:32:09.557Z,99.96
2018-11-03T02:34:37.985Z,99.99
2018-11-03T02:37:06.127Z,100.00
2018-11-03T02:39:34.265Z,99.69
2018-11-03T02:42:02.508Z,99.57
2018-11-03T02:44:31.175Z,99.48
2018-11-03T02:46:59.365Z,99.65
2018-11-03T02:49:27.525Z,99.56
2018-11-03T02:51:55.755Z,99.33
2018-11-03T02:54:23.913Z,99.43
2018-11-03T02:56:52.454Z,99.48
2018-11-03T02:59:20.584Z,99.47
2018-11-03T03:01:48.853Z,99.86
2018-11-03T03:04:17.016Z,99.14
2018-11-03T03:06:45.332Z,98.06
2018-11-03T03:09:13.566Z,96.59
2018-11-03T03:11:41.720Z,96.56
2018-11-03T03:14:10.160Z,96.87
2018-11-03T03:16:38.379Z,97.54
2018-11-03T03:19:06.558Z,97.74
2018-11-03T03:21:34.702Z,98.05
2018-11-03T03:24:02.928Z,98.17
2018-11-03T03:26:31.200Z,97.51
2018-11-03T03:28:59.443Z,97.89
2018-11-03T03:31:27.569Z,97.90
2018-11-03T03:33:55.763Z,98.53
2018-11-03T03:36:24.328Z,98.49
2018-11-03T03:38:52.580Z,99.12
2018-11-03T03:41:20.743Z,99.47
2018-11-03T03:43:48.937Z,99.88
2018-11-03T03:46:17.232Z,99.77
2018-11-03T03:48:45.447Z,99.85
2018-11-03T03:51:13.687Z,99.84
2018-11-03T03:53:41.859Z,99.79
2018-11-03T03:56:09.990Z,99.46
2018-11-03T03:58:38.123Z,98.36
2018-11-03T04:01:06.442Z,98.35
2018-11-03T04:03:34.704Z,98.32
2018-11-03T04:06:03.091Z,98.67
2018-11-03T04:08:31.363Z,98.98
2018-11-03T04:10:59.513Z,98.92
2018-11-03T04:13:27.805Z,98.58
2018-11-03T04:15:56.067Z,98.66
2018-11-03T04:18:24.253Z,98.86
2018-11-03T04:20:52.462Z,98.29
2018-11-03T04:23:20.572Z,97.95
2018-11-03T04:25:48.699Z,98.09
2018-11-03T04:28:17.132Z,98.05
2018-11-03T04:30:45.271Z,97.63
2018-11-03T04:33:13.466Z,96.41
2018-11-03T04:35:41.853Z,95.65
2018-11-03T04:38:10.033Z,95.77
2018-11-03T04:40:38.472Z,95.96
2018-11-03T04:43:06.883Z,96.56
2018-11-03T04:45:35.110Z,95.72
2018-11-03T04:48:03.364Z,95.97
2018-11-03T04:50:31.696Z,94.25
2018-11-03T04:52:59.883Z,95.01
2018-11-03T04:55:28.175Z,95.02
2018-11-03T04:57:56.367Z,94.62
2018-11-03T05:00:24.596Z,94.51
2018-11-03T05:02:52.764Z,94.47
2018-11-03T05:05:21.024Z,93.95
2018-11-03T05:07:49.156Z,93.83
2018-11-03T05:10:17.401Z,94.10
2018-11-03T05:12:45.759Z,94.20
2018-11-03T05:15:14.199Z,94.39
2018-11-03T05:17:42.427Z,94.65
2018-11-03T05:20:10.628Z,94.65
2018-11-03T05:22:38.780Z,94.60
2018-11-03T05:25:07.276Z,95.66
2018-11-03T05:27:35.535Z,96.36
2018-11-03T05:30:04.266Z,96.54
2018-11-03T05:32:32.440Z,96.52
2018-11-03T05:35:00.902Z,96.58
2018-11-03T05:37:29.261Z,96.53
2018-11-03T05:39:57.533Z,96.50
2018-11-03T05:42:25.741Z,95.97
2018-11-03T05:44:53.892Z,96.31
2018-11-03T05:47:22.058Z,96.32
2018-11-03T05:49:50.292Z,95.89
2018-11-03T05:52:18.577Z,95.96
2018-11-03T05:54:46.779Z,96.32
2018-11-03T05:57:15.017Z,95.99
2018-11-03T05:59:43.276Z,94.82
2018-11-03T06:02:11.612Z,93.96
2018-11-03T06:04:39.832Z,94.16
2018-11-03T06:07:08.068Z,94.42
2018-11-03T06:09:36.489Z,94.50
2018-11-03T06:12:05.133Z,95.01
2018-11-03T06:14:33.352Z,95.18
2018-11-03T06:17:01.485Z,94.74
2018-11-03T06:19:29.716Z,93.78
2018-11-03T06:21:58.008Z,92.54
2018-11-03T06:24:26.223Z,91.80
2018-11-03T06:26:54.367Z,91.40
2018-11-03T06:29:22.756Z,91.21
2018-11-03T06:31:50.930Z,93.14
2018-11-03T06:34:19.188Z,96.36
2018-11-03T06:36:47.321Z,96.29
2018-11-03T06:39:15.561Z,97.41
2018-11-03T06:41:43.841Z,97.69
2018-11-03T06:44:11.999Z,97.75
2018-11-03T06:46:40.206Z,97.41
2018-11-03T06:49:13.518Z,97.06
2018-11-03T06:51:41.642Z,96.63
2018-11-03T06:54:10.005Z,96.94
2018-11-03T06:56:38.316Z,96.09
2018-11-03T06:59:06.489Z,95.87
2018-11-03T07:01:34.640Z,94.88
2018-11-03T07:04:03.184Z,94.90
2018-11-03T07:06:31.342Z,94.61
2018-11-03T07:08:59.491Z,93.38
2018-11-03T07:11:27.705Z,93.33
2018-11-03T07:13:55.834Z,93.74
2018-11-03T07:16:23.988Z,93.79
2018-11-03T07:18:52.415Z,93.27
2018-11-03T07:21:20.727Z,91.90
2018-11-03T07:23:48.855Z,91.33
2018-11-03T07:26:17.189Z,90.06
2018-11-03T07:28:45.360Z,89.71
2018-11-03T07:31:13.473Z,90.46
2018-11-03T07:33:41.789Z,91.48
2018-11-03T07:36:10.057Z,92.21
2018-11-03T07:38:38.176Z,91.34
2018-11-03T07:41:06.661Z,91.48
2018-11-03T07:43:34.774Z,91.94
2018-11-03T07:46:03.063Z,91.62
2018-11-03T07:48:32.178Z,90.62
2018-11-03T07:51:00.246Z,89.60
2018-11-03T07:53:28.555Z,88.57
2018-11-03T07:55:56.699Z,87.74
2018-11-03T07:58:24.879Z,88.91
2018-11-03T08:00:53.007Z,89.60
2018-11-03T08:03:21.299Z,89.50
2018-11-03T08:05:49.593Z,89.24
2018-11-03T08:08:17.733Z,89.28
2018-11-03T08:10:45.871Z,88.30
2018-11-03T08:13:14.143Z,88.09
2018-11-03T08:15:42.841Z,87.15
2018-11-03T08:18:10.833Z,88.22
2018-11-03T08:20:39.222Z,86.68
2018-11-03T08:23:07.345Z,86.03
2018-11-03T08:25:35.697Z,84.68
2018-11-03T08:28:03.853Z,85.27
2018-11-03T08:30:32.017Z,86.36
2018-11-03T08:33:00.251Z,85.80
2018-11-03T08:35:28.392Z,86.00
2018-11-03T08:37:56.680Z,86.18
2018-11-03T08:40:24.796Z,85.74
2018-11-03T08:42:53.032Z,85.78
2018-11-03T08:45:21.207Z,85.50
2018-11-03T08:47:49.528Z,84.00
2018-11-03T08:50:17.676Z,84.91
2018-11-03T08:52:45.913Z,83.56
2018-11-03T08:55:14.451Z,83.03
2018-11-03T08:57:43.060Z,82.40
2018-11-03T09:00:13.342Z,84.17
2018-11-03T09:02:41.872Z,84.43
2018-11-03T09:05:10.727Z,83.50
2018-11-03T09:07:39.161Z,83.56
2018-11-03T09:10:09.270Z,81.63
2018-11-03T09:12:37.545Z,80.66
2018-11-03T09:15:06.833Z,80.74
2018-11-03T09:17:35.188Z,80.93
2018-11-03T09:20:03.334Z,81.20
2018-11-03T09:22:31.569Z,79.83
2018-11-03T09:24:59.679Z,80.33
2018-11-03T09:27:27.968Z,81.62
2018-11-03T09:29:56.259Z,82.22
2018-11-03T09:32:24.403Z,81.83
2018-11-03T09:34:52.719Z,81.25
2018-11-03T09:37:21.043Z,81.73
2018-11-03T09:39:49.165Z,81.04
2018-11-03T09:42:17.532Z,81.16
2018-11-03T09:44:46.110Z,80.04
2018-11-03T09:47:14.443Z,81.67
2018-11-03T09:49:42.952Z,82.42
2018-11-03T09:52:11.296Z,84.17
2018-11-03T09:54:39.649Z,82.98
2018-11-03T09:57:07.811Z,80.97
2018-11-03T09:59:36.061Z,80.71
2018-11-03T10:02:04.274Z,80.53
2018-11-03T10:04:32.496Z,81.27
2018-11-03T10:07:00.711Z,81.72
2018-11-03T10:09:28.927Z,80.83
2018-11-03T10:11:57.085Z,80.72
2018-11-03T10:14:25.556Z,80.83
2018-11-03T10:16:53.872Z,80.83
2018-11-03T10:19:22.367Z,80.25
2018-11-03T10:21:50.948Z,79.25
2018-11-03T10:24:19.077Z,79.80
2018-11-03T10:26:47.352Z,79.40
2018-11-03T10:29:15.525Z,79.08
2018-11-03T10:31:43.860Z,78.96
2018-11-03T10:34:12.345Z,79.42
2018-11-03T10:36:40.878Z,80.63
2018-11-03T10:39:11.065Z,80.44
2018-11-03T10:41:39.665Z,79.81
2018-11-03T10:44:08.081Z,78.44
2018-11-03T10:46:37.667Z,78.39
2018-11-03T10:49:05.883Z,78.70
2018-11-03T10:51:34.084Z,78.74
2018-11-03T10:54:02.391Z,78.30
2018-11-03T10:56:30.715Z,78.80
2018-11-03T10:58:59.040Z,79.02
2018-11-03T11:01:32.597Z,78.72
2018-11-03T11:04:06.341Z,77.10
2018-11-03T11:06:39.931Z,77.13
2018-11-03T11:09:13.597Z,76.53
2018-11-03T11:11:47.359Z,76.68
2018-11-03T11:14:16.712Z,76.17
2018-11-03T11:16:45.045Z,76.54
2018-11-03T11:19:13.391Z,77.19
2018-11-03T11:21:41.752Z,77.48
2018-11-03T11:24:10.221Z,76.51
2018-11-03T11:26:38.660Z,76.74
2018-11-03T11:29:06.844Z,77.15
2018-11-03T11:31:35.132Z,77.05
2018-11-03T11:34:03.192Z,77.11
2018-11-03T11:36:31.625Z,77.57
2018-11-03T11:39:00.033Z,77.06
2018-11-03T11:41:28.431Z,76.37
2018-11-03T11:43:56.587Z,75.40
2018-11-03T11:46:24.820Z,75.53
2018-11-03T11:48:53.209Z,76.28
2018-11-03T11:51:21.352Z,75.82
2018-11-03T11:53:49.652Z,76.13
2018-11-03T11:56:17.775Z,75.27
2018-11-03T11:58:45.963Z,74.52
2018-11-03T12:01:14.327Z,74.70
2018-11-03T12:03:42.450Z,74.70
2018-11-03T12:06:10.691Z,74.91
2018-11-03T12:08:39.922Z,75.25
2018-11-03T12:11:08.252Z,75.02
2018-11-03T12:13:36.509Z,74.44
2018-11-03T12:16:04.884Z,74.77
2018-11-03T12:18:33.632Z,74.90
2018-11-03T12:21:02.285Z,75.07
2018-11-03T12:23:30.630Z,75.41
2018-11-03T12:25:59.256Z,75.41
2018-11-03T12:28:27.736Z,76.13
2018-11-03T12:30:56.177Z,75.35
2018-11-03T12:33:24.555Z,75.00
2018-11-03T12:35:53.232Z,75.19
2018-11-03T12:38:21.934Z,76.55
2018-11-03T12:40:50.234Z,75.33
2018-11-03T12:43:18.404Z,74.80
2018-11-03T12:45:46.620Z,73.94
2018-11-03T12:48:15.010Z,75.53
2018-11-03T12:50:43.091Z,75.73
2018-11-03T12:53:11.571Z,75.32
2018-11-03T12:55:39.981Z,75.06
2018-11-03T12:58:08.281Z,75.51
2018-11-03T13:00:36.871Z,74.55
2018-11-03T13:03:06.127Z,74.98
2018-11-03T13:05:34.532Z,74.56
2018-11-03T13:08:02.896Z,74.47
2018-11-03T13:10:31.329Z,73.98
2018-11-03T13:12:59.839Z,75.26
2018-11-03T13:15:28.625Z,74.62
2018-11-03T13:17:57.395Z,74.07
2018-11-03T13:20:25.620Z,74.68
2018-11-03T13:22:53.842Z,73.87
2018-11-03T13:25:22.035Z,74.03
2018-11-03T13:27:50.206Z,73.17
2018-11-03T13:30:18.420Z,73.40
2018-11-03T13:32:46.532Z,73.79
2018-11-03T13:35:15.006Z,73.10
2018-11-03T13:37:43.147Z,74.58
2018-11-03T13:40:12.740Z,73.87
2018-11-03T13:42:41.175Z,74.09
2018-11-03T13:45:09.894Z,75.40
2018-11-03T13:47:39.026Z,74.68
2018-11-03T13:50:12.980Z,75.42
2018-11-03T13:52:42.539Z,75.68
2018-11-03T13:55:10.967Z,75.59
2018-11-03T13:57:39.528Z,75.46
2018-11-03T14:00:10.117Z,76.12
2018-11-03T14:02:38.269Z,76.76
2018-11-03T14:05:07.180Z,77.60
2018-11-03T14:07:35.419Z,77.13
2018-11-03T14:10:03.735Z,76.71
2018-11-03T14:12:32.035Z,77.40
2018-11-03T14:15:00.312Z,77.33
2018-11-03T14:17:28.762Z,77.19
2018-11-03T14:19:57.028Z,77.00
2018-11-03T14:22:25.302Z,77.26
2018-11-03T14:24:53.452Z,76.95
2018-11-03T14:27:21.696Z,76.33
2018-11-03T14:29:50.028Z,76.70
2018-11-03T14:32:18.333Z,75.96
2018-11-03T14:34:46.615Z,76.20
2018-11-03T14:37:15.156Z,75.36
2018-11-03T14:39:43.324Z,75.73
2018-11-03T14:42:11.479Z,75.94
2018-11-03T14:44:39.816Z,76.34
2018-11-03T14:47:08.160Z,76.31
2018-11-03T14:49:36.358Z,76.07
2018-11-03T14:52:04.916Z,76.37
2018-11-03T14:54:33.178Z,76.07
2018-11-03T14:57:01.431Z,76.14
2018-11-03T14:59:29.652Z,76.49
2018-11-03T15:01:57.860Z,76.50
2018-11-03T15:04:26.087Z,77.12
2018-11-03T15:06:54.227Z,77.04
2018-11-03T15:09:22.348Z,77.05
2018-11-03T15:11:50.632Z,77.81
2018-11-03T15:14:18.886Z,77.85
2018-11-03T15:16:47.051Z,77.78
2018-11-03T15:19:15.200Z,77.63
2018-11-03T15:21:43.411Z,77.50
2018-11-03T15:24:11.711Z,77.86
2018-11-03T15:26:39.904Z,77.70
2018-11-03T15:29:08.051Z,78.11
2018-11-03T15:31:36.188Z,78.57
2018-11-03T15:34:04.356Z,78.04
2018-11-03T15:36:32.666Z,78.47
2018-11-03T15:39:00.942Z,78.49
2018-11-03T15:41:29.240Z,78.45
2018-11-03T15:43:57.332Z,78.58
2018-11-03T15:46:25.605Z,78.70
2018-11-03T15:48:53.817Z,78.87
2018-11-03T15:51:22.273Z,78.87
2018-11-03T15:53:50.562Z,79.13
2018-11-03T15:56:18.849Z,79.62
2018-11-03T15:58:47.074Z,79.26
2018-11-03T16:01:15.592Z,79.84
2018-11-03T16:03:43.783Z,79.35
2018-11-03T16:06:12.069Z,79.27
2018-11-03T16:08:40.200Z,79.58
2018-11-03T16:11:08.594Z,79.54
2018-11-03T16:13:36.873Z,80.38
2018-11-03T16:16:05.247Z,80.01
2018-11-03T16:18:33.551Z,80.08
2018-11-03T16:21:01.753Z,79.97
2018-11-03T16:23:30.032Z,80.22
2018-11-03T16:25:58.197Z,80.33
2018-11-03T16:28:26.549Z,80.99
2018-11-03T16:30:54.693Z,80.30
2018-11-03T16:33:22.951Z,80.57
2018-11-03T16:35:51.167Z,80.22
2018-11-03T16:38:19.791Z,80.79
2018-11-03T16:40:48.020Z,80.66
2018-11-03T16:43:16.221Z,80.58
2018-11-03T16:45:44.486Z,80.90
2018-11-03T16:48:12.691Z,81.06
2018-11-03T16:50:40.992Z,81.11
2018-11-03T16:53:09.229Z,81.14
2018-11-03T16:55:37.570Z,81.30
2018-11-03T16:58:05.949Z,81.17
2018-11-03T17:00:34.135Z,81.46
2018-11-03T17:03:02.316Z,81.24
2018-11-03T17:05:30.470Z,81.41
2018-11-03T17:07:58.723Z,81.49
2018-11-03T17:10:27.037Z,81.97
2018-11-03T17:12:55.374Z,81.65
2018-11-03T17:15:23.518Z,82.32
2018-11-03T17:17:51.762Z,81.89
2018-11-03T17:20:19.925Z,82.31
2018-11-03T17:22:48.132Z,82.47
2018-11-03T17:25:19.467Z,82.75
2018-11-03T17:27:47.536Z,82.17
2018-11-03T17:30:16.228Z,82.32
2018-11-03T17:32:45.130Z,82.61
2018-11-03T17:35:13.616Z,83.03
2018-11-03T17:37:41.905Z,83.07
2018-11-03T17:40:10.625Z,83.40
2018-11-03T17:42:39.136Z,83.10
2018-11-03T17:45:08.575Z,83.26
2018-11-03T17:47:36.919Z,83.99
2018-11-03T17:50:05.959Z,83.65
2018-11-03T17:52:34.148Z,83.85
2018-11-03T17:55:02.469Z,84.26
2018-11-03T17:57:30.744Z,84.59
2018-11-03T17:59:59.167Z,84.21
2018-11-03T18:02:27.400Z,84.57
2018-11-03T18:04:55.729Z,85.01
2018-11-03T18:07:23.950Z,84.59
2018-11-03T18:09:52.158Z,84.73
2018-11-03T18:12:20.355Z,84.90
2018-11-03T18:14:48.487Z,85.16
2018-11-03T18:17:16.679Z,85.13
2018-11-03T18:19:44.979Z,85.34
2018-11-03T18:22:13.108Z,85.07
2018-11-03T18:24:41.260Z,85.31
2018-11-03T18:27:16.213Z,85.19
2018-11-03T18:29:44.580Z,84.95
2018-11-03T18:32:12.756Z,84.98
2018-11-03T18:34:41.167Z,85.15
2018-11-03T18:37:09.396Z,85.56
2018-11-03T18:39:37.624Z,85.40
2018-11-03T18:42:05.974Z,85.10
2018-11-03T18:44:34.130Z,85.62
2018-11-03T18:47:02.340Z,85.90
2018-11-03T18:49:30.631Z,86.34
2018-11-03T18:51:59.143Z,86.82
2018-11-03T18:54:27.303Z,86.21
2018-11-03T18:56:56.261Z,86.47
2018-11-03T18:59:24.620Z,86.34
2018-11-03T19:01:52.940Z,86.88
2018-11-03T19:04:21.113Z,86.51
2018-11-03T19:06:49.344Z,86.83
2018-11-03T19:09:17.706Z,86.41
2018-11-03T19:11:45.784Z,86.34
2018-11-03T19:14:14.106Z,86.39
2018-11-03T19:16:42.415Z,86.52
2018-11-03T19:19:10.627Z,86.65
2018-11-03T19:21:39.084Z,86.63
2018-11-03T19:24:07.546Z,86.45
2018-11-03T19:26:35.651Z,87.48
2018-11-03T19:29:04.035Z,87.22
2018-11-03T19:31:32.347Z,87.29
2018-11-03T19:34:00.567Z,87.15
2018-11-03T19:36:28.790Z,87.21
2018-11-03T19:38:57.811Z,87.38
2018-11-03T19:41:26.023Z,87.99
2018-11-03T19:43:54.147Z,87.81
2018-11-03T19:46:22.395Z,88.17
2018-11-03T19:48:50.813Z,88.15
2018-11-03T19:51:19.345Z,88.28
2018-11-03T19:53:47.576Z,88.56
2018-11-03T19:56:15.812Z,88.68
2018-11-03T19:58:43.972Z,88.59
2018-11-03T20:01:12.175Z,88.44
2018-11-03T20:03:40.512Z,88.40
2018-11-03T20:06:08.957Z,88.55
2018-11-03T20:08:37.091Z,88.31
2018-11-03T20:11:05.242Z,88.80
2018-11-03T20:13:33.430Z,88.83
2018-11-03T20:16:01.745Z,88.34
2018-11-03T20:18:29.948Z,88.78
2018-11-03T20:20:58.740Z,88.73
2018-11-03T20:23:27.000Z,88.48
2018-11-03T20:25:55.265Z,88.63
2018-11-03T20:28:23.480Z,88.94
2018-11-03T20:30:51.728Z,89.06
2018-11-03T20:33:19.940Z,89.22
2018-11-03T20:35:48.120Z,89.48
2018-11-03T20:38:16.409Z,89.49
2018-11-03T20:40:44.682Z,89.73
2018-11-03T20:43:13.016Z,90.17
2018-11-03T20:45:41.207Z,89.75
2018-11-03T20:48:09.663Z,90.05
2018-11-03T20:50:37.911Z,90.04
2018-11-03T20:53:06.161Z,90.03
2018-11-03T20:55:34.461Z,89.71
2018-11-03T20:58:02.608Z,89.90
2018-11-03T21:00:30.759Z,89.38
2018-11-03T21:02:59.904Z,89.38
2018-11-03T21:05:28.059Z,89.92
2018-11-03T21:07:56.283Z,90.25
2018-11-03T21:10:24.508Z,90.57
2018-11-03T21:12:52.852Z,90.76
2018-11-03T21:15:21.541Z,91.23
2018-11-03T21:17:49.863Z,91.29
2018-11-03T21:20:18.287Z,91.11
2018-11-03T21:22:46.530Z,91.72
2018-11-03T21:25:14.704Z,91.52
2018-11-03T21:27:42.871Z,90.98
2018-11-03T21:30:11.869Z,90.82
2018-11-03T21:32:40.498Z,90.39
2018-11-03T21:35:08.663Z,89.51
2018-11-03T21:37:37.540Z,89.24
2018-11-03T21:40:06.235Z,89.94
2018-11-03T21:42:34.576Z,89.90
2018-11-03T21:45:03.024Z,90.04
2018-11-03T21:47:31.219Z,90.02
2018-11-03T21:49:59.540Z,90.04
2018-11-03T21:52:27.711Z,91.04
2018-11-03T21:54:56.004Z,91.78
2018-11-03T21:57:24.336Z,91.62
2018-11-03T22:02:41.834Z,91.67
2018-11-03T22:05:11.667Z,91.66
2018-11-03T22:07:40.139Z,91.91
2018-11-03T22:10:08.836Z,91.61
2018-11-03T22:12:37.055Z,91.77
2018-11-03T22:15:05.840Z,91.96
2018-11-03T22:17:34.091Z,91.90
2018-11-03T22:20:02.507Z,92.43
2018-11-03T22:22:30.735Z,92.54
2018-11-03T22:24:58.987Z,92.77
2018-11-03T22:27:27.786Z,92.67
2018-11-03T22:29:56.016Z,92.80
2018-11-03T22:32:24.145Z,92.38
2018-11-03T22:34:52.410Z,92.92
2018-11-03T22:37:20.550Z,92.46
2018-11-03T22:39:48.941Z,92.61
2018-11-03T22:42:17.257Z,92.69
2018-11-03T22:44:45.355Z,92.91
2018-11-03T22:47:13.524Z,92.79
2018-11-03T22:49:41.699Z,92.77
2018-11-03T22:52:09.993Z,92.40
2018-11-03T22:54:38.976Z,92.26
2018-11-03T22:57:07.394Z,91.31
2018-11-03T22:59:35.763Z,91.13
2018-11-03T23:02:04.193Z,91.11
2018-11-03T23:04:33.207Z,90.45
2018-11-03T23:07:01.624Z,89.31
2018-11-03T23:09:29.878Z,90.22
2018-11-03T23:11:58.155Z,90.41
2018-11-03T23:14:26.373Z,90.50
2018-11-03T23:16:54.757Z,91.06
2018-11-03T23:19:23.387Z,91.96
2018-11-03T23:21:51.853Z,91.98
2018-11-03T23:24:20.355Z,92.55
2018-11-03T23:26:48.839Z,92.77
2018-11-03T23:29:17.189Z,92.48
2018-11-03T23:31:45.424Z,92.18
2018-11-03T23:34:13.614Z,92.40
2018-11-03T23:36:41.844Z,92.58
2018-11-03T23:39:11.404Z,92.30
2018-11-03T23:41:39.708Z,91.90
2018-11-03T23:44:08.008Z,91.94
2018-11-03T23:46:36.492Z,91.93
2018-11-03T23:49:04.672Z,90.84
2018-11-03T23:51:33.279Z,90.35
2018-11-03T23:54:01.465Z,91.84
2018-11-03T23:56:30.060Z,92.69
2018-11-03T23:58:58.303Z,93.27
